createdAt,value
2018-05-24T00:01:03.813Z,52.17
2018-05-24T00:03:33.668Z,51.23
2018-05-24T00:06:02.877Z,51.87
2018-05-24T00:08:32.224Z,53.70
2018-05-24T00:11:03.265Z,55.07
2018-05-24T00:13:35.285Z,55.10
2018-05-24T00:16:05.818Z,53.87
2018-05-24T00:18:34.953Z,56.93
2018-05-24T00:21:04.134Z,56.70
2018-05-24T00:23:34.166Z,52.70
2018-05-24T00:26:03.289Z,59.43
2018-05-24T00:28:32.464Z,60.80
2018-05-24T00:31:01.525Z,60.33
2018-05-24T00:33:32.029Z,59.97
2018-05-24T00:36:01.317Z,60.97
2018-05-24T00:38:31.676Z,60.17
2018-05-24T00:41:01.735Z,61.37
2018-05-24T00:43:32.091Z,64.53
2018-05-24T00:46:01.411Z,60.30
2018-05-24T00:48:30.891Z,62.20
2018-05-24T00:51:00.493Z,61.43
2018-05-24T00:53:29.692Z,62.87
2018-05-24T00:55:58.932Z,58.17
2018-05-24T00:58:28.846Z,58.30
2018-05-24T01:00:58.798Z,57.40
2018-05-24T01:03:27.925Z,57.37
2018-05-24T01:05:57.007Z,59.33
2018-05-24T01:08:26.246Z,59.77
2018-05-24T01:10:56.226Z,60.77
2018-05-24T01:13:26.495Z,60.37
2018-05-24T01:15:55.774Z,61.57
2018-05-24T01:18:25.507Z,59.57
2018-05-24T01:20:55.407Z,63.43
2018-05-24T01:23:24.739Z,64.30
2018-05-24T01:25:54.056Z,65.03
2018-05-24T01:28:25.969Z,66.27
2018-05-24T01:30:55.902Z,67.70
2018-05-24T01:33:25.191Z,67.07
2018-05-24T01:35:54.437Z,69.90
2018-05-24T01:38:23.833Z,70.90
2018-05-24T01:40:54.351Z,71.77
2018-05-24T01:43:23.563Z,74.03
2018-05-24T01:45:52.851Z,73.27
2018-05-24T01:48:22.911Z,70.40
2018-05-24T01:50:52.152Z,71.70
2018-05-24T01:53:23.699Z,68.73
2018-05-24T01:55:53.192Z,73.90
2018-05-24T01:58:22.469Z,71.63
2018-05-24T02:00:52.307Z,71.00
2018-05-24T02:03:22.430Z,70.80
2018-05-24T02:05:51.568Z,72.73
2018-05-24T02:08:20.682Z,71.90
2018-05-24T02:10:49.793Z,71.03
2018-05-24T02:13:18.911Z,72.70
2018-05-24T02:15:48.041Z,70.17
2018-05-24T02:18:17.641Z,72.90
2018-05-24T02:20:48.306Z,69.47
2018-05-24T02:23:18.482Z,75.23
2018-05-24T02:28:23.849Z,75.10
2018-05-24T02:30:53.672Z,76.20
2018-05-24T02:33:25.063Z,77.83
2018-05-24T02:35:54.617Z,75.00
2018-05-24T02:38:23.870Z,73.53
2018-05-24T02:40:53.618Z,71.80
2018-05-24T02:43:23.197Z,76.73
2018-05-24T02:45:52.420Z,75.07
2018-05-24T02:48:22.161Z,73.63
2018-05-24T02:50:52.052Z,76.33
2018-05-24T02:53:22.007Z,59.50
2018-05-24T02:55:53.818Z,52.87
2018-05-24T02:58:24.300Z,50.57
2018-05-24T03:00:53.494Z,51.50
2018-05-24T03:03:25.385Z,55.03
2018-05-24T03:08:30.278Z,49.77
2018-05-24T03:14:14.769Z,55.37
2018-05-24T03:16:44.191Z,55.93
2018-05-24T03:19:16.422Z,51.83
2018-05-24T03:21:45.924Z,62.13
2018-05-24T03:24:17.840Z,62.20
2018-05-24T03:26:47.436Z,59.00
2018-05-24T03:29:17.057Z,61.53
2018-05-24T03:31:47.062Z,62.40
2018-05-24T03:34:16.230Z,58.97
2018-05-24T03:36:45.405Z,57.37
2018-05-24T03:39:15.439Z,57.50
2018-05-24T03:41:44.550Z,54.80
2018-05-24T03:44:13.758Z,54.67
2018-05-24T03:46:42.904Z,57.07
2018-05-24T03:49:12.972Z,56.00
2018-05-24T03:51:42.128Z,58.97
2018-05-24T03:54:11.857Z,25.83
2018-05-24T03:56:43.491Z,16.23
2018-05-24T03:59:33.908Z,15.03
2018-05-24T04:02:14.525Z,13.47
2018-05-24T04:04:54.798Z,13.77
2018-05-24T04:07:24.776Z,12.53
2018-05-24T04:09:55.223Z,11.20
2018-05-24T04:12:27.362Z,11.37
2018-05-24T04:14:56.461Z,10.93
2018-05-24T04:17:25.636Z,11.63
2018-05-24T04:19:56.447Z,11.87
2018-05-24T04:22:26.210Z,11.23
2018-05-24T04:24:55.557Z,12.10
2018-05-24T04:27:24.688Z,11.27
2018-05-24T04:29:53.895Z,12.47
2018-05-24T04:32:23.417Z,13.83
2018-05-24T04:34:52.532Z,13.93
2018-05-24T04:37:25.727Z,18.57
2018-05-24T04:39:55.676Z,17.00
2018-05-24T04:42:24.895Z,16.47
2018-05-24T04:44:53.981Z,19.83
2018-05-24T04:47:23.108Z,18.40
2018-05-24T04:49:53.208Z,21.07
2018-05-24T04:52:22.249Z,21.30
2018-05-24T04:54:52.234Z,18.43
2018-05-24T04:57:21.375Z,19.77
2018-05-24T04:59:51.778Z,20.90
2018-05-24T05:02:20.913Z,20.63
2018-05-24T05:04:51.417Z,19.07
2018-05-24T05:07:20.525Z,18.40
2018-05-24T05:09:49.753Z,19.33
2018-05-24T05:12:18.830Z,19.40
2018-05-24T05:14:48.106Z,20.73
2018-05-24T05:17:17.231Z,21.23
2018-05-24T05:19:46.316Z,24.60
2018-05-24T05:22:16.719Z,22.57
2018-05-24T05:24:46.525Z,27.13
2018-05-24T05:27:16.737Z,30.87
2018-05-24T05:29:46.703Z,26.10
2018-05-24T05:32:16.686Z,25.37
2018-05-24T05:34:46.312Z,25.77
2018-05-24T05:37:16.000Z,27.47
2018-05-24T05:39:45.139Z,29.43
2018-05-24T05:42:14.880Z,29.90
2018-05-24T05:44:44.550Z,28.17
2018-05-24T05:47:13.755Z,27.87
2018-05-24T05:49:42.914Z,26.73
2018-05-24T05:52:12.042Z,22.47
2018-05-24T05:54:41.218Z,21.10
2018-05-24T05:57:10.337Z,23.33
2018-05-24T05:59:40.436Z,22.83
2018-05-24T06:02:09.656Z,22.87
2018-05-24T06:04:38.810Z,21.70
2018-05-24T06:07:08.086Z,19.67
2018-05-24T06:09:37.250Z,21.33
2018-05-24T06:12:06.353Z,22.67
2018-05-24T06:14:36.335Z,24.27
2018-05-24T06:17:05.539Z,29.17
2018-05-24T06:19:34.596Z,26.80
2018-05-24T06:22:04.574Z,28.00
2018-05-24T06:24:33.717Z,32.67
2018-05-24T06:27:03.351Z,35.00
2018-05-24T06:29:32.565Z,32.37
2018-05-24T06:32:01.891Z,32.50
2018-05-24T06:34:31.072Z,31.73
2018-05-24T06:37:00.475Z,34.00
2018-05-24T06:39:30.068Z,33.10
2018-05-24T06:41:59.251Z,33.33
2018-05-24T06:44:33.012Z,31.50
2018-05-24T06:49:49.113Z,31.83
2018-05-24T06:52:18.502Z,31.47
2018-05-24T06:54:47.759Z,32.27
2018-05-24T06:57:16.876Z,34.67
2018-05-24T06:59:46.137Z,34.43
2018-05-24T07:02:15.457Z,37.00
2018-05-24T07:04:44.553Z,34.80
2018-05-24T07:07:18.361Z,34.60
2018-05-24T07:09:47.536Z,34.43
2018-05-24T07:12:16.730Z,33.97
2018-05-24T07:14:49.013Z,32.97
2018-05-24T07:17:19.104Z,35.40
2018-05-24T07:20:09.395Z,35.20
2018-05-24T07:22:39.818Z,38.80
2018-05-24T07:25:11.053Z,36.77
2018-05-24T07:27:40.561Z,38.10
2018-05-24T07:30:11.397Z,34.63
2018-05-24T07:32:41.850Z,33.70
2018-05-24T07:35:12.356Z,31.50
2018-05-24T07:37:41.566Z,31.20
2018-05-24T07:40:10.740Z,30.60
2018-05-24T07:42:40.614Z,30.67
2018-05-24T07:45:09.739Z,30.20
2018-05-24T07:47:39.599Z,38.23
2018-05-24T07:50:08.847Z,31.23
2018-05-24T07:52:38.657Z,31.87
2018-05-24T07:55:07.729Z,34.03
2018-05-24T07:57:36.845Z,33.03
2018-05-24T08:00:06.736Z,27.97
2018-05-24T08:02:35.836Z,28.60
2018-05-24T08:05:05.095Z,29.33
2018-05-24T08:07:34.291Z,29.37
2018-05-24T08:10:06.884Z,30.03
2018-05-24T08:12:36.726Z,30.30
2018-05-24T08:15:06.543Z,33.37
2018-05-24T08:17:35.945Z,31.93
2018-05-24T08:20:05.870Z,32.57
2018-05-24T08:22:41.278Z,32.83
2018-05-24T08:25:11.048Z,34.00
2018-05-24T08:27:40.446Z,35.60
2018-05-24T08:30:11.304Z,34.50
2018-05-24T08:32:40.575Z,33.53
2018-05-24T08:35:09.863Z,32.70
2018-05-24T08:37:38.937Z,35.63
2018-05-24T08:40:09.509Z,34.90
2018-05-24T08:42:38.614Z,39.00
2018-05-24T08:45:07.969Z,40.67
2018-05-24T08:47:41.065Z,40.97
2018-05-24T08:50:12.030Z,42.17
2018-05-24T08:52:46.939Z,48.20
2018-05-24T08:55:16.356Z,47.30
2018-05-24T08:57:45.465Z,48.87
2018-05-24T09:00:15.903Z,49.33
2018-05-24T09:02:45.475Z,54.00
2018-05-24T09:05:16.227Z,52.73
2018-05-24T09:07:45.518Z,56.73
2018-05-24T09:10:18.840Z,62.20
2018-05-24T09:12:48.310Z,65.93
2018-05-24T09:15:17.450Z,71.33
2018-05-24T09:17:46.791Z,75.77
2018-05-24T09:20:17.864Z,67.20
2018-05-24T09:22:47.741Z,83.30
2018-05-24T09:25:17.448Z,87.57
2018-05-24T09:27:47.614Z,90.60
2018-05-24T09:30:18.705Z,96.57
2018-05-24T09:48:10.270Z,67.80
2018-05-24T09:50:43.345Z,69.83
2018-05-24T09:53:13.502Z,69.43
2018-05-24T09:55:42.787Z,63.50
2018-05-24T09:58:11.922Z,60.87
2018-05-24T10:00:42.389Z,59.23
2018-05-24T10:03:11.518Z,56.50
2018-05-24T10:05:41.618Z,59.33
2018-05-24T10:08:10.826Z,64.37
2018-05-24T10:10:43.248Z,58.17
2018-05-24T10:13:12.586Z,64.13
2018-05-24T10:15:42.013Z,94.30
2018-05-24T10:18:13.503Z,125.97
2018-05-24T10:20:45.323Z,98.77
2018-05-24T10:23:17.438Z,102.23
2018-05-24T10:25:46.768Z,97.33
2018-05-24T10:28:16.285Z,97.60
2018-05-24T10:30:53.328Z,83.43
2018-05-24T10:33:22.774Z,77.90
2018-05-24T10:35:51.933Z,85.33
2018-05-24T10:38:21.286Z,85.53
2018-05-24T10:40:51.869Z,84.90
2018-05-24T10:43:22.024Z,81.77
2018-05-24T10:45:51.281Z,85.23
2018-05-24T10:48:20.806Z,81.03
2018-05-24T10:50:53.360Z,83.00
2018-05-24T10:53:22.664Z,77.33
2018-05-24T10:55:51.944Z,74.90
2018-05-24T10:58:21.091Z,76.07
2018-05-24T11:00:51.282Z,75.93
2018-05-24T11:03:20.879Z,77.23
2018-05-24T11:05:50.292Z,87.93
2018-05-24T11:08:21.235Z,88.80
2018-05-24T11:13:27.260Z,85.03
2018-05-24T11:15:56.406Z,78.03
2018-05-24T11:18:26.562Z,73.90
2018-05-24T11:20:57.079Z,75.93
2018-05-24T11:23:27.201Z,84.07
2018-05-24T11:25:56.796Z,86.20
2018-05-24T11:28:27.814Z,86.37
2018-05-24T11:31:01.297Z,116.40
2018-05-24T11:33:31.437Z,102.00
2018-05-24T11:36:00.850Z,115.80
2018-05-24T11:38:31.364Z,107.53
2018-05-24T11:41:02.546Z,101.80
2018-05-24T11:43:31.849Z,102.90
2018-05-24T11:46:01.334Z,102.20
2018-05-24T11:48:31.687Z,102.70
2018-05-24T11:51:02.929Z,100.07
2018-05-24T11:53:32.897Z,91.53
2018-05-24T11:56:04.145Z,95.07
2018-05-24T11:58:36.680Z,94.27
2018-05-24T12:01:07.789Z,101.87
2018-05-24T12:03:44.363Z,96.50
2018-05-24T12:06:15.339Z,91.17
2018-05-24T12:08:52.239Z,89.83
2018-05-24T12:11:22.274Z,87.43
2018-05-24T12:13:51.438Z,84.77
2018-05-24T12:16:21.215Z,81.57
2018-05-24T12:18:55.090Z,77.47
2018-05-24T12:21:29.965Z,74.83
2018-05-24T12:23:59.303Z,71.80
2018-05-24T12:26:28.842Z,71.87
2018-05-24T12:28:58.139Z,75.37
2018-05-24T12:31:30.483Z,76.67
2018-05-24T12:34:05.699Z,68.70
2018-05-24T12:42:16.644Z,66.67
2018-05-24T12:44:51.881Z,73.27
2018-05-24T12:47:21.661Z,67.40
2018-05-24T12:49:58.337Z,66.27
2018-05-24T12:52:28.119Z,69.43
2018-05-24T12:54:59.957Z,69.63
2018-05-24T12:57:38.600Z,64.03
2018-05-24T13:00:12.146Z,63.20
2018-05-24T13:02:49.511Z,59.00
2018-05-24T13:05:19.396Z,56.27
2018-05-24T13:07:50.680Z,56.07
2018-05-24T13:10:21.287Z,55.27
2018-05-24T13:18:33.373Z,48.63
2018-05-24T13:21:07.615Z,47.87
2018-05-24T13:23:42.882Z,47.23
2018-05-24T13:26:14.353Z,47.83
2018-05-24T13:28:45.894Z,50.00
2018-05-24T13:31:23.922Z,48.40
2018-05-24T13:41:10.180Z,51.87
2018-05-24T13:43:43.384Z,49.53
2018-05-24T13:46:15.713Z,53.17
2018-05-24T13:48:51.235Z,54.97
2018-05-24T13:51:25.361Z,54.30
2018-05-24T13:54:01.203Z,47.33
2018-05-24T13:57:08.689Z,46.20
2018-05-24T13:59:39.300Z,41.90
2018-05-24T14:02:23.463Z,40.47
2018-05-24T14:04:55.282Z,37.30
2018-05-24T14:07:25.550Z,40.60
2018-05-24T14:09:55.621Z,39.60
2018-05-24T14:12:28.526Z,35.50
2018-05-24T14:15:00.516Z,33.93
2018-05-24T14:17:36.010Z,27.30
2018-05-24T14:20:07.653Z,21.57
2018-05-24T14:22:38.153Z,22.53
2018-05-24T14:25:07.624Z,25.13
2018-05-24T14:27:36.885Z,26.73
2018-05-24T14:30:06.292Z,24.80
2018-05-24T14:32:38.267Z,23.33
2018-05-24T14:35:07.346Z,22.60
2018-05-24T14:37:37.966Z,23.50
2018-05-24T14:40:07.144Z,26.97
2018-05-24T14:42:36.255Z,24.70
2018-05-24T14:45:05.410Z,24.07
2018-05-24T14:47:35.347Z,23.13
2018-05-24T14:50:05.337Z,21.97
2018-05-24T14:52:36.435Z,22.83
2018-05-24T14:55:06.464Z,25.47
2018-05-24T14:57:37.388Z,28.83
2018-05-24T15:00:06.686Z,28.80
2018-05-24T15:02:35.781Z,30.80
2018-05-24T15:05:06.234Z,34.67
2018-05-24T15:07:35.326Z,30.70
2018-05-24T15:10:05.374Z,37.50
2018-05-24T15:12:34.535Z,44.50
2018-05-24T15:15:04.318Z,48.80
2018-05-24T15:17:38.112Z,42.10
2018-05-24T15:20:10.096Z,34.73
2018-05-24T15:22:40.175Z,33.33
2018-05-24T15:25:13.785Z,31.73
2018-05-24T15:27:45.804Z,38.43
2018-05-24T15:30:14.959Z,35.67
2018-05-24T15:32:44.163Z,30.73
2018-05-24T15:35:15.830Z,28.87
2018-05-24T15:37:45.532Z,26.13
2018-05-24T15:42:51.980Z,28.87
2018-05-24T15:45:22.019Z,25.87
2018-05-24T15:47:51.229Z,26.23
2018-05-24T15:50:20.410Z,24.90
2018-05-24T15:52:49.802Z,24.43
2018-05-24T15:55:19.205Z,26.90
2018-05-24T15:57:49.413Z,26.13
2018-05-24T16:00:18.814Z,27.90
2018-05-24T16:02:48.171Z,26.33
2018-05-24T16:05:18.176Z,27.43
2018-05-24T16:07:49.359Z,23.50
2018-05-24T16:10:18.583Z,25.93
2018-05-24T16:12:47.715Z,24.90
2018-05-24T16:15:17.185Z,27.70
2018-05-24T16:17:47.307Z,31.30
2018-05-24T16:20:16.502Z,24.27
2018-05-24T16:22:45.567Z,26.33
2018-05-24T16:25:15.214Z,24.47
2018-05-24T16:27:44.554Z,25.50
2018-05-24T16:30:13.691Z,28.73
2018-05-24T16:32:47.360Z,27.63
2018-05-24T16:35:17.454Z,33.13
2018-05-24T16:37:46.818Z,21.63
2018-05-24T16:40:15.944Z,27.60
2018-05-24T16:42:45.133Z,27.73
2018-05-24T16:45:14.228Z,22.33
2018-05-24T16:47:43.585Z,23.53
2018-05-24T16:50:12.813Z,23.33
2018-05-24T16:52:45.977Z,22.87
2018-05-24T16:55:15.161Z,24.13
2018-05-24T16:57:44.610Z,24.77
2018-05-24T17:00:13.805Z,24.30
2018-05-24T17:02:43.387Z,23.67
2018-05-24T17:05:12.640Z,21.97
2018-05-24T17:07:43.197Z,23.67
2018-05-24T17:10:12.356Z,23.83
2018-05-24T17:12:41.534Z,27.70
2018-05-24T17:15:11.560Z,23.50
2018-05-24T17:17:42.545Z,22.83
2018-05-24T17:20:12.557Z,24.40
2018-05-24T17:22:41.709Z,19.97
2018-05-24T17:25:12.000Z,16.03
2018-05-24T17:27:41.915Z,20.37
2018-05-24T17:30:12.420Z,21.87
2018-05-24T17:32:41.761Z,22.83
2018-05-24T17:35:10.815Z,21.57
2018-05-24T17:37:40.959Z,24.85
2018-05-24T17:40:10.472Z,23.02
2018-05-24T17:42:40.357Z,22.75
2018-05-24T17:45:10.129Z,20.67
2018-05-24T17:47:40.689Z,21.73
2018-05-24T17:50:10.160Z,22.73
2018-05-24T17:52:40.085Z,20.20
2018-05-24T17:55:09.921Z,21.23
2018-05-24T17:57:40.348Z,20.05
2018-05-24T18:00:09.704Z,22.02
2018-05-24T18:02:40.402Z,20.58
2018-05-24T18:05:10.182Z,22.13
2018-05-24T18:07:39.322Z,50.37
2018-05-24T18:10:08.391Z,45.70
2018-05-24T18:12:37.569Z,49.07
2018-05-24T18:15:06.891Z,50.30
2018-05-24T18:17:36.038Z,50.03
2018-05-24T18:20:06.087Z,49.67
2018-05-24T18:22:35.438Z,47.40
2018-05-24T18:25:04.605Z,46.70
2018-05-24T18:27:34.566Z,44.83
2018-05-24T18:30:04.215Z,42.93
2018-05-24T18:32:35.629Z,41.57
2018-05-24T18:35:08.006Z,39.10
2018-05-24T18:37:37.788Z,39.27
2018-05-24T18:40:08.416Z,36.27
2018-05-24T18:42:43.530Z,37.30
2018-05-24T18:45:14.854Z,38.30
2018-05-24T18:47:45.312Z,38.13
2018-05-24T18:50:14.829Z,36.60
2018-05-24T18:52:44.664Z,35.77
2018-05-24T18:55:15.240Z,35.40
2018-05-24T18:57:47.366Z,32.30
2018-05-24T19:00:16.929Z,31.30
2018-05-24T19:02:47.166Z,31.60
2018-05-24T19:05:16.275Z,33.77
2018-05-24T19:07:46.345Z,38.60
2018-05-24T19:10:15.537Z,38.17
2018-05-24T19:12:46.312Z,39.83
2018-05-24T19:15:16.152Z,34.80
2018-05-24T19:17:46.462Z,38.30
2018-05-24T19:20:16.480Z,37.67
2018-05-24T19:22:57.020Z,40.63
2018-05-24T19:25:28.175Z,38.73
2018-05-24T19:28:00.454Z,38.60
2018-05-24T19:30:32.330Z,40.87
2018-05-24T19:33:06.284Z,40.53
2018-05-24T19:35:37.120Z,36.53
2018-05-24T19:38:10.001Z,36.47
2018-05-24T19:40:39.875Z,41.43
2018-05-24T19:43:44.408Z,46.57
2018-05-24T19:46:17.393Z,40.77
2018-05-24T19:48:46.945Z,41.93
2018-05-24T19:53:53.351Z,42.60
2018-05-24T19:56:23.590Z,40.23
2018-05-24T19:58:53.735Z,40.93
2018-05-24T20:01:23.805Z,35.40
2018-05-24T20:03:56.232Z,39.03
2018-05-24T20:06:25.618Z,36.47
2018-05-24T20:08:58.212Z,37.17
2018-05-24T20:11:28.974Z,34.40
2018-05-24T20:13:59.889Z,35.23
2018-05-24T20:16:30.143Z,34.40
2018-05-24T20:19:00.425Z,35.17
2018-05-24T20:21:29.939Z,46.50
2018-05-24T20:24:00.468Z,47.97
2018-05-24T20:26:31.016Z,50.73
2018-05-24T20:29:17.724Z,45.67
2018-05-24T20:31:51.452Z,51.37
2018-05-24T20:34:20.800Z,58.17
2018-05-24T20:36:50.880Z,45.90
2018-05-24T20:39:23.452Z,43.43
2018-05-24T20:41:52.661Z,45.83
2018-05-24T20:44:24.014Z,49.97
2018-05-24T20:46:54.001Z,47.20
2018-05-24T20:49:23.141Z,41.37
2018-05-24T20:51:52.907Z,50.00
2018-05-24T20:54:23.280Z,53.77
2018-05-24T20:56:56.915Z,52.07
2018-05-24T20:59:34.071Z,49.10
2018-05-24T21:04:45.418Z,51.10
2018-05-24T21:07:15.610Z,69.03
2018-05-24T21:09:46.193Z,62.80
2018-05-24T21:12:15.669Z,57.07
2018-05-24T21:14:46.525Z,61.90
2018-05-24T21:17:16.062Z,61.70
2018-05-24T21:19:46.019Z,58.43
2018-05-24T21:22:21.223Z,66.07
2018-05-24T21:24:53.783Z,63.93
2018-05-24T21:27:23.210Z,60.17
2018-05-24T21:29:52.316Z,58.00
2018-05-24T21:32:21.781Z,60.37
2018-05-24T21:34:51.743Z,67.83
2018-05-24T21:37:20.910Z,54.10
2018-05-24T21:39:50.280Z,63.43
2018-05-24T21:42:19.505Z,56.23
2018-05-24T21:44:49.891Z,53.27
2018-05-24T21:47:19.784Z,54.50
2018-05-24T21:49:48.935Z,53.03
2018-05-24T21:52:18.164Z,56.57
2018-05-24T21:54:48.417Z,49.47
2018-05-24T21:57:18.488Z,51.37
2018-05-24T21:59:48.940Z,52.03
2018-05-24T22:02:18.173Z,53.37
2018-05-24T22:04:50.448Z,52.53
2018-05-24T22:07:19.589Z,49.33
2018-05-24T22:09:48.886Z,50.87
2018-05-24T22:12:18.019Z,50.10
2018-05-24T22:14:47.937Z,49.90
2018-05-24T22:17:17.812Z,51.60
2018-05-24T22:19:46.935Z,51.70
2018-05-24T22:22:16.001Z,48.23
2018-05-24T22:24:45.080Z,53.67
2018-05-24T22:27:14.302Z,60.13
2018-05-24T22:29:43.558Z,55.67
2018-05-24T22:32:12.880Z,53.97
2018-05-24T22:34:42.358Z,51.03
2018-05-24T22:37:11.568Z,51.13
2018-05-24T22:39:40.733Z,52.70
2018-05-24T22:42:10.678Z,54.93
2018-05-24T22:44:39.929Z,55.43
2018-05-24T22:47:09.027Z,52.27
2018-05-24T22:49:38.547Z,52.07
2018-05-24T22:52:07.860Z,50.67
2018-05-24T22:54:37.896Z,52.20
2018-05-24T22:57:07.240Z,50.67
2018-05-24T22:59:37.345Z,50.40
2018-05-24T23:02:06.951Z,53.60
2018-05-24T23:04:36.503Z,50.50
2018-05-24T23:07:05.703Z,51.70
2018-05-24T23:09:34.971Z,56.07
2018-05-24T23:12:04.879Z,62.77
2018-05-24T23:14:34.939Z,61.97
2018-05-24T23:17:05.049Z,57.90
2018-05-24T23:19:34.275Z,54.57
2018-05-24T23:22:04.175Z,50.70
2018-05-24T23:24:33.514Z,48.27
2018-05-24T23:27:03.097Z,43.77
2018-05-24T23:29:32.300Z,43.93
2018-05-24T23:32:02.495Z,45.73
2018-05-24T23:34:31.684Z,48.93
2018-05-24T23:37:01.159Z,46.87
2018-05-24T23:39:31.072Z,48.37
2018-05-24T23:42:01.059Z,48.63
2018-05-24T23:44:30.229Z,48.47
2018-05-24T23:46:59.352Z,50.60
2018-05-24T23:49:28.395Z,46.73
2018-05-24T23:51:58.315Z,50.70
2018-05-24T23:54:27.462Z,49.80
2018-05-24T23:56:57.853Z,49.13
2018-05-24T23:59:27.152Z,51.40
